createdAt,value
2023-04-26T00:01:05.173Z,15.87
2023-04-26T00:03:33.389Z,15.81
2023-04-26T00:06:04.125Z,15.75
2023-04-26T00:08:31.309Z,15.71
2023-04-26T00:10:58.366Z,15.73
2023-04-26T00:13:25.610Z,15.71
2023-04-26T00:15:52.794Z,15.74
2023-04-26T00:18:19.894Z,15.74
2023-04-26T00:20:47.392Z,15.75
2023-04-26T00:23:14.372Z,15.76
2023-04-26T00:25:41.910Z,15.78
2023-04-26T00:28:08.943Z,15.82
2023-04-26T00:30:37.797Z,15.84
2023-04-26T00:33:05.105Z,15.87
2023-04-26T00:35:32.278Z,15.87
2023-04-26T00:37:59.309Z,15.87
2023-04-26T00:40:26.336Z,15.94
2023-04-26T00:42:58.604Z,15.98
2023-04-26T00:45:26.265Z,15.97
2023-04-26T00:47:53.666Z,15.92
2023-04-26T00:50:21.117Z,15.86
2023-04-26T00:52:48.472Z,15.86
2023-04-26T00:55:16.731Z,15.80
2023-04-26T00:57:45.899Z,15.76
2023-04-26T01:00:13.778Z,15.76
2023-04-26T01:02:41.865Z,15.70
2023-04-26T01:05:09.567Z,15.74
2023-04-26T01:07:38.772Z,15.73
2023-04-26T01:10:06.373Z,15.75
2023-04-26T01:12:33.587Z,15.80
2023-04-26T01:15:01.148Z,15.81
2023-04-26T01:17:28.477Z,15.77
2023-04-26T01:19:57.374Z,15.69
2023-04-26T01:22:24.446Z,15.65
2023-04-26T01:24:53.179Z,15.60
2023-04-26T01:27:20.327Z,15.57
2023-04-26T01:29:47.955Z,15.54
2023-04-26T01:32:15.120Z,15.54
2023-04-26T01:34:42.149Z,15.55
2023-04-26T01:37:11.586Z,15.57
2023-04-26T01:39:38.822Z,15.63
2023-04-26T01:42:05.903Z,15.67
2023-04-26T01:44:33.140Z,15.70
2023-04-26T01:47:01.662Z,15.71
2023-04-26T01:49:28.886Z,15.75
2023-04-26T01:51:56.378Z,15.81
2023-04-26T01:54:24.456Z,15.80
2023-04-26T01:56:53.647Z,15.80
2023-04-26T01:59:21.169Z,15.83
2023-04-26T02:01:48.207Z,15.84
2023-04-26T02:04:15.335Z,15.84
2023-04-26T02:06:42.548Z,15.85
2023-04-26T02:09:09.946Z,15.85
2023-04-26T02:11:40.534Z,15.83
2023-04-26T02:14:07.770Z,15.81
2023-04-26T02:16:35.017Z,15.84
2023-04-26T02:19:03.962Z,15.85
2023-04-26T02:21:31.192Z,15.83
2023-04-26T02:23:58.225Z,15.82
2023-04-26T02:26:25.394Z,15.78
2023-04-26T02:28:52.657Z,15.76
2023-04-26T02:31:21.121Z,15.75
2023-04-26T02:33:50.223Z,15.73
2023-04-26T02:36:17.176Z,15.72
2023-04-26T02:38:44.213Z,15.71
2023-04-26T02:41:11.287Z,15.68
2023-04-26T02:43:39.298Z,15.67
2023-04-26T02:46:09.501Z,15.69
2023-04-26T02:48:36.992Z,15.73
2023-04-26T02:51:04.323Z,15.73
2023-04-26T02:53:31.368Z,15.77
2023-04-26T02:55:58.649Z,15.75
2023-04-26T02:58:25.752Z,15.73
2023-04-26T03:00:54.746Z,15.63
2023-04-26T03:03:23.082Z,15.56
2023-04-26T03:05:50.599Z,15.45
2023-04-26T03:08:18.353Z,15.41
2023-04-26T03:10:46.749Z,15.42
2023-04-26T03:13:13.880Z,15.39
2023-04-26T03:15:45.215Z,15.33
2023-04-26T03:18:12.386Z,15.30
2023-04-26T03:20:39.853Z,15.37
2023-04-26T03:23:07.653Z,15.66
2023-04-26T03:25:34.869Z,15.87
2023-04-26T03:28:02.379Z,16.01
2023-04-26T03:30:29.777Z,16.21
2023-04-26T03:32:57.623Z,16.22
2023-04-26T03:35:24.895Z,16.19
2023-04-26T03:37:53.413Z,16.17
2023-04-26T03:40:21.602Z,16.13
2023-04-26T03:42:48.799Z,16.17
2023-04-26T03:45:16.665Z,16.17
2023-04-26T03:47:43.808Z,16.19
2023-04-26T03:50:11.304Z,16.21
2023-04-26T03:52:38.702Z,16.32
2023-04-26T03:55:06.531Z,16.49
2023-04-26T03:57:33.721Z,16.67
2023-04-26T04:00:01.282Z,16.80
2023-04-26T04:02:28.555Z,16.90
2023-04-26T04:04:56.194Z,16.89
2023-04-26T04:07:23.689Z,16.83
2023-04-26T04:09:51.276Z,16.69
2023-04-26T04:12:20.307Z,16.56
2023-04-26T04:14:48.504Z,16.45
2023-04-26T04:17:16.816Z,16.28
2023-04-26T04:19:44.128Z,16.15
2023-04-26T04:22:12.411Z,16.08
2023-04-26T04:24:42.512Z,16.00
2023-04-26T04:27:09.732Z,15.96
2023-04-26T04:29:39.378Z,15.90
2023-04-26T04:32:06.549Z,15.87
2023-04-26T04:34:37.261Z,15.93
2023-04-26T04:37:04.906Z,16.02
2023-04-26T04:39:32.873Z,16.23
2023-04-26T04:42:00.664Z,16.47
2023-04-26T04:44:28.575Z,16.67
2023-04-26T04:46:57.227Z,16.73
2023-04-26T04:49:25.024Z,16.51
2023-04-26T04:51:53.333Z,16.38
2023-04-26T04:54:20.661Z,16.26
2023-04-26T04:56:48.349Z,16.18
2023-04-26T04:59:16.643Z,16.21
2023-04-26T05:01:43.827Z,16.25
2023-04-26T05:04:15.472Z,16.35
2023-04-26T05:06:43.529Z,16.72
2023-04-26T05:09:11.538Z,17.02
2023-04-26T05:11:38.798Z,18.17
2023-04-26T05:14:07.854Z,18.78
2023-04-26T05:16:35.242Z,20.24
2023-04-26T05:19:03.552Z,21.40
2023-04-26T05:21:31.740Z,22.52
2023-04-26T05:23:58.786Z,23.61
2023-04-26T05:26:27.756Z,23.11
2023-04-26T05:29:20.106Z,23.03
2023-04-26T05:32:07.642Z,22.99
2023-04-26T05:34:46.768Z,24.02
2023-04-26T05:37:17.421Z,24.84
2023-04-26T05:39:44.814Z,25.60
2023-04-26T05:42:12.356Z,26.27
2023-04-26T05:44:40.385Z,26.43
2023-04-26T05:47:07.593Z,26.25
2023-04-26T05:49:34.641Z,26.05
2023-04-26T05:52:01.813Z,26.20
2023-04-26T05:54:28.857Z,26.62
2023-04-26T05:56:58.356Z,27.05
2023-04-26T05:59:27.149Z,27.45
2023-04-26T06:01:55.229Z,27.90
2023-04-26T06:04:22.785Z,28.08
2023-04-26T06:07:10.290Z,28.16
2023-04-26T06:09:37.377Z,28.49
2023-04-26T06:12:04.705Z,28.81
2023-04-26T06:14:34.982Z,29.19
2023-04-26T06:17:06.973Z,29.70
2023-04-26T06:19:34.070Z,29.91
2023-04-26T06:22:01.151Z,30.02
2023-04-26T06:24:28.455Z,30.22
2023-04-26T06:26:55.779Z,30.37
2023-04-26T06:29:22.829Z,30.23
2023-04-26T06:31:50.003Z,30.21
2023-04-26T06:34:19.047Z,30.09
2023-04-26T06:36:47.165Z,30.21
2023-04-26T06:39:14.864Z,30.59
2023-04-26T06:41:43.549Z,31.11
2023-04-26T06:44:11.713Z,31.41
2023-04-26T06:46:42.759Z,30.18
2023-04-26T06:49:11.604Z,28.13
2023-04-26T06:51:38.637Z,26.50
2023-04-26T06:54:05.796Z,24.51
2023-04-26T06:56:32.798Z,23.76
2023-04-26T06:59:01.993Z,23.12
2023-04-26T07:01:29.823Z,24.01
2023-04-26T07:03:59.916Z,24.33
2023-04-26T07:06:27.260Z,24.29
2023-04-26T07:08:54.572Z,24.85
2023-04-26T07:11:24.590Z,25.18
2023-04-26T07:13:53.346Z,25.73
2023-04-26T07:16:20.768Z,25.98
2023-04-26T07:18:52.885Z,26.17
2023-04-26T07:21:20.055Z,26.13
2023-04-26T07:23:47.123Z,25.65
2023-04-26T07:26:14.167Z,24.99
2023-04-26T07:28:41.225Z,24.83
2023-04-26T07:31:09.604Z,24.61
2023-04-26T07:33:38.243Z,24.21
2023-04-26T07:36:06.009Z,23.58
2023-04-26T07:38:33.015Z,23.47
2023-04-26T07:41:01.457Z,23.15
2023-04-26T07:43:28.801Z,23.15
2023-04-26T07:45:56.191Z,22.97
2023-04-26T07:48:23.364Z,22.72
2023-04-26T07:50:50.372Z,23.39
2023-04-26T07:53:17.449Z,23.78
2023-04-26T07:55:44.444Z,23.88
2023-04-26T07:58:14.731Z,24.33
2023-04-26T08:00:42.445Z,24.00
2023-04-26T08:03:09.752Z,24.28
2023-04-26T08:05:37.172Z,24.21
2023-04-26T08:08:04.581Z,24.14
2023-04-26T08:10:31.769Z,23.93
2023-04-26T08:13:03.219Z,23.67
2023-04-26T08:15:30.358Z,23.41
2023-04-26T08:17:57.465Z,23.32
2023-04-26T08:20:24.741Z,23.22
2023-04-26T08:22:58.865Z,23.11
2023-04-26T08:25:26.403Z,23.35
2023-04-26T08:27:53.545Z,23.04
2023-04-26T08:30:21.499Z,22.94
2023-04-26T08:32:48.624Z,22.15
2023-04-26T08:35:15.905Z,21.94
2023-04-26T08:37:42.868Z,21.88
2023-04-26T08:40:10.496Z,22.53
2023-04-26T08:42:44.166Z,22.78
2023-04-26T08:45:11.894Z,22.76
2023-04-26T08:47:48.715Z,22.90
2023-04-26T08:50:19.451Z,22.48
2023-04-26T08:52:51.326Z,22.00
2023-04-26T08:55:20.379Z,21.79
2023-04-26T08:57:49.754Z,21.77
2023-04-26T09:00:18.310Z,21.41
2023-04-26T09:02:54.078Z,20.91
2023-04-26T09:05:24.688Z,20.81
2023-04-26T09:07:57.188Z,21.01
2023-04-26T09:10:24.429Z,20.96
2023-04-26T09:12:55.010Z,20.56
2023-04-26T09:15:24.133Z,20.23
2023-04-26T09:17:52.349Z,20.41
2023-04-26T09:20:26.488Z,20.55
2023-04-26T09:23:04.003Z,20.39
2023-04-26T09:25:32.174Z,20.17
2023-04-26T09:28:00.439Z,20.37
2023-04-26T09:30:28.648Z,20.85
2023-04-26T09:33:03.966Z,21.08
2023-04-26T09:35:42.647Z,20.98
2023-04-26T09:38:15.535Z,20.90
2023-04-26T09:40:47.417Z,20.72
2023-04-26T09:43:16.781Z,20.57
2023-04-26T09:45:57.233Z,20.27
2023-04-26T09:48:31.743Z,20.41
2023-04-26T09:51:09.186Z,20.89
2023-04-26T09:53:48.476Z,20.44
2023-04-26T09:56:20.379Z,20.48
2023-04-26T09:58:47.438Z,20.57
2023-04-26T10:01:16.427Z,20.67
2023-04-26T10:03:44.960Z,20.46
2023-04-26T10:06:15.598Z,20.25
2023-04-26T10:08:43.448Z,20.30
2023-04-26T10:11:13.997Z,20.51
2023-04-26T10:13:43.154Z,20.58
2023-04-26T10:16:10.463Z,20.64
2023-04-26T10:18:38.157Z,20.60
2023-04-26T10:21:31.705Z,20.77
2023-04-26T10:23:59.720Z,20.79
2023-04-26T10:26:57.268Z,20.75
2023-04-26T10:29:26.297Z,20.58
2023-04-26T10:32:02.581Z,20.68
2023-04-26T10:34:32.228Z,20.81
2023-04-26T10:37:18.381Z,20.79
2023-04-26T10:39:47.032Z,20.93
2023-04-26T10:42:27.797Z,20.65
2023-04-26T10:44:59.420Z,20.53
2023-04-26T10:47:26.678Z,20.50
2023-04-26T10:50:04.336Z,20.48
2023-04-26T10:52:32.900Z,20.46
2023-04-26T10:55:00.833Z,20.55
2023-04-26T10:57:53.049Z,20.35
2023-04-26T11:00:29.219Z,20.39
2023-04-26T11:03:07.240Z,20.57
2023-04-26T11:05:38.570Z,20.55
2023-04-26T11:08:15.227Z,20.96
2023-04-26T11:10:43.225Z,21.14
2023-04-26T11:13:10.424Z,21.46
2023-04-26T11:15:37.638Z,21.54
2023-04-26T11:18:05.460Z,21.36
2023-04-26T11:20:33.969Z,20.89
2023-04-26T11:23:01.565Z,20.73
2023-04-26T11:25:29.851Z,20.47
2023-04-26T11:28:02.215Z,20.43
2023-04-26T11:30:31.952Z,20.37
2023-04-26T11:33:05.450Z,20.32
2023-04-26T11:35:36.597Z,20.51
2023-04-26T11:38:06.713Z,20.65
2023-04-26T11:40:34.024Z,20.90
2023-04-26T11:43:02.682Z,21.07
2023-04-26T11:45:31.633Z,21.01
2023-04-26T11:47:59.545Z,20.77
2023-04-26T11:50:27.186Z,20.54
2023-04-26T11:52:56.015Z,20.72
2023-04-26T11:55:32.235Z,20.71
2023-04-26T11:58:10.758Z,20.52
2023-04-26T12:00:38.524Z,20.41
2023-04-26T12:03:11.188Z,20.31
2023-04-26T12:05:38.715Z,20.11
2023-04-26T12:08:05.800Z,20.22
2023-04-26T12:10:36.576Z,20.32
2023-04-26T12:13:04.074Z,20.32
2023-04-26T12:15:33.124Z,20.16
2023-04-26T12:18:11.002Z,19.80
2023-04-26T12:20:41.121Z,19.86
2023-04-26T12:23:10.242Z,19.91
2023-04-26T12:25:39.511Z,20.04
2023-04-26T12:28:12.523Z,20.18
2023-04-26T12:30:40.604Z,20.24
2023-04-26T12:33:16.572Z,20.42
2023-04-26T12:35:44.602Z,20.29
2023-04-26T12:38:12.684Z,20.34
2023-04-26T12:40:39.862Z,20.50
2023-04-26T12:43:07.205Z,20.62
2023-04-26T12:45:34.536Z,20.73
2023-04-26T12:48:02.313Z,20.92
2023-04-26T12:50:29.385Z,21.07
2023-04-26T12:55:23.831Z,21.41
2023-04-26T12:57:51.299Z,21.23
2023-04-26T13:00:18.603Z,21.05
2023-04-26T13:02:46.848Z,20.86
2023-04-26T13:05:14.495Z,20.83
2023-04-26T13:07:44.383Z,20.90
2023-04-26T13:10:13.086Z,21.04
2023-04-26T13:12:40.497Z,21.29
2023-04-26T13:15:09.078Z,21.44
2023-04-26T13:17:37.955Z,21.41
2023-04-26T13:20:06.778Z,20.98
2023-04-26T13:22:34.760Z,20.87
2023-04-26T13:25:02.220Z,20.57
2023-04-26T13:27:31.672Z,20.85
2023-04-26T13:29:59.185Z,21.07
2023-04-26T13:32:26.509Z,21.16
2023-04-26T13:34:54.457Z,21.03
2023-04-26T13:37:21.636Z,20.95
2023-04-26T13:39:48.920Z,20.88
2023-04-26T13:42:16.861Z,20.77
2023-04-26T13:44:44.347Z,20.87
2023-04-26T13:47:11.490Z,20.79
2023-04-26T13:49:41.509Z,20.49
2023-04-26T13:52:08.788Z,20.56
2023-04-26T13:54:36.997Z,20.81
2023-04-26T13:57:04.836Z,20.90
2023-04-26T13:59:32.544Z,20.72
2023-04-26T14:01:59.771Z,20.31
2023-04-26T14:04:27.588Z,20.22
2023-04-26T14:06:54.797Z,20.13
2023-04-26T14:09:21.921Z,20.28
2023-04-26T14:11:57.162Z,20.25
2023-04-26T14:14:34.658Z,20.03
2023-04-26T14:17:01.888Z,20.11
2023-04-26T14:19:29.203Z,20.31
2023-04-26T14:21:56.264Z,20.30
2023-04-26T14:24:24.674Z,20.37
2023-04-26T14:26:52.144Z,20.27
2023-04-26T14:29:19.563Z,20.18
2023-04-26T14:31:46.801Z,20.06
2023-04-26T14:34:13.932Z,19.96
2023-04-26T14:36:41.220Z,19.92
2023-04-26T14:39:08.402Z,20.06
2023-04-26T14:41:35.409Z,20.10
2023-04-26T14:44:02.459Z,19.96
2023-04-26T14:46:29.638Z,19.97
2023-04-26T14:48:56.874Z,19.90
2023-04-26T14:51:24.225Z,19.65
2023-04-26T14:53:51.426Z,19.29
2023-04-26T14:56:18.475Z,19.15
2023-04-26T14:58:45.607Z,19.15
2023-04-26T15:01:12.689Z,19.16
2023-04-26T15:03:40.494Z,19.18
2023-04-26T15:06:10.074Z,19.12
2023-04-26T15:08:37.311Z,19.10
2023-04-26T15:11:04.528Z,19.05
2023-04-26T15:13:31.748Z,19.01
2023-04-26T15:16:07.325Z,18.84
2023-04-26T15:18:35.119Z,18.78
2023-04-26T15:21:02.348Z,18.61
2023-04-26T15:23:29.415Z,18.55
2023-04-26T15:26:01.359Z,18.44
2023-04-26T15:28:28.503Z,18.43
2023-04-26T15:31:05.609Z,18.41
2023-04-26T15:33:32.695Z,18.45
2023-04-26T15:35:59.932Z,18.44
2023-04-26T15:38:27.216Z,18.40
2023-04-26T15:40:54.374Z,18.42
2023-04-26T15:43:21.573Z,18.47
2023-04-26T15:45:49.861Z,18.45
2023-04-26T15:48:17.745Z,18.36
2023-04-26T15:50:45.678Z,18.38
2023-04-26T15:53:12.890Z,18.36
2023-04-26T15:55:40.160Z,18.41
2023-04-26T15:58:07.918Z,18.35
2023-04-26T16:00:36.512Z,18.27
2023-04-26T16:03:03.717Z,18.31
2023-04-26T16:05:32.733Z,18.24
2023-04-26T16:07:59.910Z,18.20
2023-04-26T16:10:27.429Z,18.03
2023-04-26T16:12:54.461Z,18.09
2023-04-26T16:15:21.628Z,18.12
2023-04-26T16:17:48.899Z,18.14
2023-04-26T16:20:16.559Z,18.23
2023-04-26T16:22:45.274Z,18.18
2023-04-26T16:25:12.479Z,18.11
2023-04-26T16:27:39.574Z,18.08
2023-04-26T16:30:07.331Z,17.97
2023-04-26T16:32:34.659Z,18.00
2023-04-26T16:35:01.704Z,18.03
2023-04-26T16:37:28.764Z,17.99
2023-04-26T16:39:56.084Z,17.94
2023-04-26T16:42:23.936Z,17.92
2023-04-26T16:44:51.254Z,17.93
2023-04-26T16:47:18.468Z,17.93
2023-04-26T16:49:46.018Z,17.91
2023-04-26T16:52:13.168Z,17.89
2023-04-26T16:54:40.324Z,17.83
2023-04-26T16:57:08.855Z,17.85
2023-04-26T16:59:36.080Z,17.88
2023-04-26T17:02:03.109Z,17.88
2023-04-26T17:04:30.394Z,17.94
2023-04-26T17:06:57.430Z,17.93
2023-04-26T17:09:24.572Z,17.99
2023-04-26T17:11:51.629Z,17.95
2023-04-26T17:14:18.736Z,17.93
2023-04-26T17:16:46.117Z,17.88
2023-04-26T17:19:13.160Z,17.87
2023-04-26T17:21:40.257Z,17.88
2023-04-26T17:24:07.788Z,17.86
2023-04-26T17:26:34.946Z,17.82
2023-04-26T17:29:02.039Z,17.80
2023-04-26T17:31:29.052Z,17.67
2023-04-26T17:33:56.476Z,17.62
2023-04-26T17:36:23.573Z,17.57
2023-04-26T17:38:50.684Z,17.44
2023-04-26T17:41:17.910Z,17.41
2023-04-26T17:43:45.577Z,17.32
2023-04-26T17:46:12.920Z,17.30
2023-04-26T17:48:40.034Z,17.26
2023-04-26T17:51:07.157Z,17.25
2023-04-26T17:53:34.454Z,17.21
2023-04-26T17:56:01.820Z,17.19
2023-04-26T17:58:28.979Z,17.13
2023-04-26T18:00:56.149Z,17.10
2023-04-26T18:03:23.450Z,17.07
2023-04-26T18:05:50.849Z,17.05
2023-04-26T18:08:17.805Z,16.98
2023-04-26T18:10:45.800Z,16.98
2023-04-26T18:13:14.925Z,17.00
2023-04-26T18:15:42.056Z,16.96
2023-04-26T18:18:09.037Z,16.94
2023-04-26T18:20:39.661Z,16.93
2023-04-26T18:23:06.732Z,16.87
2023-04-26T18:25:33.771Z,16.83
2023-04-26T18:28:00.841Z,16.80
2023-04-26T18:30:27.795Z,16.81
2023-04-26T18:32:54.998Z,16.83
2023-04-26T18:35:22.021Z,16.80
2023-04-26T18:37:49.223Z,16.74
2023-04-26T18:40:16.244Z,16.71
2023-04-26T18:42:45.224Z,16.68
2023-04-26T18:45:12.922Z,16.65
2023-04-26T18:47:40.373Z,16.62
2023-04-26T18:50:08.064Z,16.62
2023-04-26T18:52:35.672Z,16.63
2023-04-26T18:55:02.742Z,16.62
2023-04-26T18:57:29.888Z,16.64
2023-04-26T18:59:57.428Z,16.65
2023-04-26T19:02:24.809Z,16.56
2023-04-26T19:04:52.029Z,16.49
2023-04-26T19:07:19.215Z,16.44
2023-04-26T19:09:54.185Z,16.42
2023-04-26T19:12:22.455Z,16.37
2023-04-26T19:14:49.657Z,16.31
2023-04-26T19:17:16.741Z,16.23
2023-04-26T19:19:44.011Z,16.21
2023-04-26T19:22:11.107Z,16.15
2023-04-26T19:24:38.207Z,16.13
2023-04-26T19:27:05.199Z,16.08
2023-04-26T19:29:32.357Z,16.07
2023-04-26T19:32:00.256Z,16.05
2023-04-26T19:34:27.983Z,16.03
2023-04-26T19:36:55.185Z,16.04
2023-04-26T19:39:23.691Z,16.05
2023-04-26T19:41:51.240Z,16.06
2023-04-26T19:44:18.999Z,16.05
2023-04-26T19:46:47.328Z,16.03
2023-04-26T19:49:14.837Z,16.00
2023-04-26T19:51:42.812Z,16.00
2023-04-26T19:54:11.108Z,15.97
2023-04-26T19:56:38.945Z,15.94
2023-04-26T19:59:06.770Z,15.92
2023-04-26T20:01:35.461Z,15.92
2023-04-26T20:04:03.132Z,15.89
2023-04-26T20:06:31.740Z,15.90
2023-04-26T20:08:59.709Z,15.89
2023-04-26T20:11:27.274Z,15.90
2023-04-26T20:13:55.142Z,15.88
2023-04-26T20:16:22.774Z,15.86
2023-04-26T20:18:53.736Z,15.85
2023-04-26T20:21:21.805Z,15.81
2023-04-26T20:23:49.874Z,15.79
2023-04-26T20:26:17.744Z,15.79
2023-04-26T20:28:46.221Z,15.79
2023-04-26T20:31:13.984Z,15.77
2023-04-26T20:33:41.648Z,15.75
2023-04-26T20:36:09.616Z,15.75
2023-04-26T20:38:37.480Z,15.77
2023-04-26T20:41:05.239Z,15.74
2023-04-26T20:43:33.539Z,15.74
2023-04-26T20:46:01.314Z,15.77
2023-04-26T20:48:29.271Z,15.74
2023-04-26T20:50:59.279Z,15.73
2023-04-26T20:53:27.451Z,15.70
2023-04-26T20:55:55.211Z,15.73
2023-04-26T20:58:22.765Z,15.71
2023-04-26T21:00:55.859Z,15.68
2023-04-26T21:03:24.174Z,15.66
2023-04-26T21:05:52.309Z,15.61
2023-04-26T21:08:20.379Z,15.60
2023-04-26T21:10:48.045Z,15.60
2023-04-26T21:13:15.704Z,15.60
2023-04-26T21:15:43.239Z,15.58
2023-04-26T21:18:11.245Z,15.60
2023-04-26T21:20:38.784Z,15.59
2023-04-26T21:23:06.558Z,15.56
2023-04-26T21:25:34.137Z,15.53
2023-04-26T21:28:01.978Z,15.53
2023-04-26T21:30:29.745Z,15.55
2023-04-26T21:32:57.640Z,15.52
2023-04-26T21:35:25.372Z,15.48
2023-04-26T21:37:53.236Z,15.46
2023-04-26T21:40:20.791Z,15.44
2023-04-26T21:43:03.645Z,15.46
2023-04-26T21:45:32.500Z,15.42
2023-04-26T21:48:00.327Z,15.41
2023-04-26T21:50:28.132Z,15.42
2023-04-26T21:52:55.900Z,15.42
2023-04-26T21:55:23.657Z,15.44
2023-04-26T21:57:51.112Z,15.42
2023-04-26T22:00:19.406Z,15.43
2023-04-26T22:02:47.967Z,15.40
2023-04-26T22:05:15.947Z,15.42
2023-04-26T22:07:43.400Z,15.39
2023-04-26T22:10:11.674Z,15.37
2023-04-26T22:12:39.333Z,15.37
2023-04-26T22:15:07.714Z,15.38
2023-04-26T22:17:35.188Z,15.34
2023-04-26T22:20:03.862Z,15.30
2023-04-26T22:22:31.618Z,15.29
2023-04-26T22:24:59.182Z,15.29
2023-04-26T22:27:26.940Z,15.29
2023-04-26T22:29:54.706Z,15.32
2023-04-26T22:32:22.241Z,15.36
2023-04-26T22:34:50.035Z,15.39
2023-04-26T22:37:21.369Z,15.37
2023-04-26T22:39:49.957Z,15.36
2023-04-26T22:42:17.420Z,15.39
2023-04-26T22:44:45.180Z,15.44
2023-04-26T22:47:12.536Z,15.45
2023-04-26T22:49:40.197Z,15.46
2023-04-26T22:52:14.425Z,15.46
2023-04-26T22:54:49.339Z,15.44
2023-04-26T22:57:17.514Z,15.40
2023-04-26T22:59:45.900Z,15.38
2023-04-26T23:02:15.711Z,15.38
2023-04-26T23:04:43.568Z,15.35
2023-04-26T23:07:11.332Z,15.34
2023-04-26T23:09:38.924Z,15.30
2023-04-26T23:12:07.172Z,15.26
2023-04-26T23:14:35.485Z,15.25
2023-04-26T23:17:03.494Z,15.25
2023-04-26T23:19:31.083Z,15.24
2023-04-26T23:21:58.849Z,15.22
2023-04-26T23:24:26.263Z,15.22
2023-04-26T23:26:54.063Z,15.22
2023-04-26T23:29:21.422Z,15.20
2023-04-26T23:31:49.209Z,15.20
2023-04-26T23:34:16.944Z,15.19
2023-04-26T23:36:44.789Z,15.20
2023-04-26T23:39:13.092Z,15.17
2023-04-26T23:41:41.052Z,15.18
2023-04-26T23:44:08.615Z,15.16
2023-04-26T23:46:36.807Z,15.15
2023-04-26T23:49:04.447Z,15.15
2023-04-26T23:51:32.934Z,15.14
2023-04-26T23:54:00.491Z,15.14
2023-04-26T23:56:28.459Z,15.14
2023-04-26T23:58:56.935Z,15.21
